Time;durP1;ratioP1;P1;durP2;ratioP2;P2;SDS_P1;SDS_P2;PMS_P1;PMS_P2;Temp;Humidity;BMP_temperature;BMP_pressure;BME280_temperature;BME280_humidity;BME280_pressure;Samples;Min_cycle;Max_cycle;Signal;HPM_P1;HPM_P2
2021/09/23 00:00:05;;;;;;;329.23;309.80;;;;;;;12.78;69.55;101702.97;696567;28;21142;-68
2021/09/23 00:00:28;;;;;;;267.05;251.45;;;;;;;12.77;69.43;101706.69;691568;28;161117;-68
2021/09/23 00:00:51;;;;;;;280.35;264.02;;;;;;;12.77;69.38;101701.25;696844;28;22310;-68
2021/09/23 00:01:12;;;;;;;227.23;214.05;;;;;;;12.76;69.73;101696.88;694303;28;65360;-68
2021/09/23 00:01:37;;;;;;;215.60;203.10;;;;;;;12.76;69.72;101702.28;696382;28;21483;-68
2021/09/23 00:02:03;;;;;;;231.05;217.68;;;;;;;12.77;69.47;101698.53;692489;28;138184;-68
2021/09/23 00:02:36;;;;;;;211.60;199.32;;;;;;;12.76;69.99;101703.13;691676;28;136445;-68
2021/09/23 00:03:11;;;;;;;220.32;207.52;;;;;;;12.73;69.61;101699.91;692581;28;138077;-67
2021/09/23 00:03:55;;;;;;;192.00;180.85;;;;;;;12.71;69.54;101691.94;691998;28;137706;-68
2021/09/23 00:04:21;;;;;;;192.63;181.43;;;;;;;12.69;69.46;101693.13;692633;28;137689;-67
2021/09/23 00:04:43;;;;;;;192.63;181.35;;;;;;;12.70;69.56;101697.53;693094;28;138721;-68
2021/09/23 00:05:05;;;;;;;221.57;208.73;;;;;;;12.69;69.57;101696.69;695605;28;47669;-67
2021/09/23 00:05:29;;;;;;;212.60;200.30;;;;;;;12.70;69.67;101700.25;695496;28;46486;-68
2021/09/23 00:05:50;;;;;;;197.43;186.07;;;;;;;12.67;69.56;101697.88;694413;28;90747;-68
2021/09/23 00:06:11;;;;;;;211.48;199.45;;;;;;;12.65;69.78;101694.47;695312;28;46356;-67
2021/09/23 00:06:32;;;;;;;207.52;195.68;;;;;;;12.64;69.67;101699.03;696743;28;22410;-68
2021/09/23 00:06:54;;;;;;;213.50;201.32;;;;;;;12.62;69.66;101695.66;697102;28;21355;-68
2021/09/23 00:07:15;;;;;;;236.07;222.60;;;;;;;12.64;69.90;101699.03;696072;28;45376;-68
2021/09/23 00:07:36;;;;;;;217.38;204.90;;;;;;;12.65;69.99;101698.03;696327;28;23478;-67
2021/09/23 00:07:58;;;;;;;200.40;188.85;;;;;;;12.64;69.87;101696.34;696485;28;22459;-67
2021/09/23 00:08:20;;;;;;;193.00;181.88;;;;;;;12.65;70.15;101698.03;695501;28;46287;-68
2021/09/23 00:08:41;;;;;;;193.73;182.43;;;;;;;12.66;69.84;101688.88;696086;28;45248;-68
2021/09/23 00:09:03;;;;;;;205.20;193.15;;;;;;;12.67;69.83;101696.00;696965;28;23489;-67
2021/09/23 00:09:24;;;;;;;210.20;197.80;;;;;;;12.67;69.76;101696.00;694893;28;46323;-68
2021/09/23 00:09:46;;;;;;;210.57;198.23;;;;;;;12.67;70.05;101696.00;696611;28;23426;-68
2021/09/23 00:10:10;;;;;;;226.77;213.55;;;;;;;12.69;69.90;101690.41;695393;28;45270;-68
2021/09/23 00:10:33;;;;;;;204.07;192.18;;;;;;;12.69;69.68;101695.84;694626;28;70526;-67
2021/09/23 00:10:55;;;;;;;211.00;198.70;;;;;;;12.67;69.70;101687.88;694095;28;92174;-68
2021/09/23 00:11:17;;;;;;;214.82;202.32;;;;;;;12.70;69.78;101690.25;695963;28;22397;-68
2021/09/23 00:11:38;;;;;;;212.32;199.98;;;;;;;12.71;69.88;101691.09;695706;28;46300;-68
2021/09/23 00:11:59;;;;;;;224.77;211.73;;;;;;;12.71;69.70;101688.38;697006;28;21620;-68
2021/09/23 00:12:20;;;;;;;211.02;198.77;;;;;;;12.70;69.58;101686.69;696146;28;22270;-67
2021/09/23 00:12:41;;;;;;;209.23;197.07;;;;;;;12.69;69.67;101691.25;695936;28;22372;-68
2021/09/23 00:13:05;;;;;;;218.97;206.30;;;;;;;12.69;69.50;101679.56;695471;28;46320;-68
2021/09/23 00:13:27;;;;;;;200.85;189.20;;;;;;;12.67;69.51;101685.16;693871;28;92110;-68
2021/09/23 00:13:48;;;;;;;216.75;204.18;;;;;;;12.68;69.66;101681.44;696063;28;46270;-68
2021/09/23 00:14:10;;;;;;;211.77;199.50;;;;;;;12.66;69.77;101683.47;697276;28;22412;-68
2021/09/23 00:14:31;;;;;;;216.48;203.93;;;;;;;12.65;69.39;101683.63;695149;28;45157;-68
2021/09/23 00:14:52;;;;;;;217.65;205.02;;;;;;;12.61;69.62;101681.25;696172;28;22440;-68
2021/09/23 00:15:15;;;;;;;201.52;189.85;;;;;;;12.61;69.52;101675.81;696184;28;21565;-67
2021/09/23 00:15:36;;;;;;;201.23;189.57;;;;;;;12.59;69.52;101686.00;694806;28;69413;-68
2021/09/23 00:15:58;;;;;;;205.13;193.30;;;;;;;12.58;69.62;101678.88;697206;28;21327;-68
2021/09/23 00:16:21;;;;;;;206.13;194.38;;;;;;;12.57;69.83;101677.19;695110;28;44450;-68
2021/09/23 00:16:42;;;;;;;225.38;212.57;;;;;;;12.55;69.58;101679.22;695377;28;67264;-67
2021/09/23 00:17:03;;;;;;;212.85;200.73;;;;;;;12.54;69.65;101673.94;696855;28;22373;-68
2021/09/23 00:17:25;;;;;;;209.05;197.07;;;;;;;12.54;70.03;101676.66;696734;28;21331;-68
2021/09/23 00:17:48;;;;;;;225.23;212.23;;;;;;;12.52;69.84;101666.00;695069;28;44378;-68
2021/09/23 00:18:12;;;;;;;217.25;204.80;;;;;;;12.51;69.99;101674.31;694244;28;70208;-68
2021/09/23 00:18:33;;;;;;;229.45;216.27;;;;;;;12.49;70.07;101671.78;694288;28;93060;-68
2021/09/23 00:18:55;;;;;;;220.15;207.32;;;;;;;12.50;70.01;101670.75;696880;28;21530;-68
2021/09/23 00:19:18;;;;;;;209.48;197.23;;;;;;;12.53;70.24;101673.13;695538;28;47291;-68
2021/09/23 00:19:39;;;;;;;223.15;210.07;;;;;;;12.50;69.89;101657.19;695213;28;69423;-68
2021/09/23 00:20:00;;;;;;;206.98;194.90;;;;;;;12.51;70.14;101669.72;696258;28;21532;-67
2021/09/23 00:20:24;;;;;;;213.40;200.95;;;;;;;12.51;70.18;101667.03;696487;28;22387;-68
2021/09/23 00:20:47;;;;;;;217.50;204.85;;;;;;;12.52;70.30;101668.69;694533;28;93362;-68
2021/09/23 00:21:09;;;;;;;216.30;203.70;;;;;;;12.51;70.29;101660.78;695159;28;69281;-68
2021/09/23 00:21:30;;;;;;;217.25;204.63;;;;;;;12.51;70.16;101666.19;694081;28;22347;-68
2021/09/23 00:21:51;;;;;;;220.73;207.88;;;;;;;12.50;70.29;101665.31;693960;28;21464;-68
2021/09/23 00:22:13;;;;;;;229.98;216.63;;;;;;;12.52;69.91;101660.56;690372;28;46329;-68
2021/09/23 00:22:34;;;;;;;210.02;197.93;;;;;;;12.53;70.05;101658.72;690658;28;46293;-68
2021/09/23 00:22:55;;;;;;;213.23;200.90;;;;;;;12.52;70.28;101660.56;691831;28;22416;-68
2021/09/23 00:23:16;;;;;;;214.82;202.43;;;;;;;12.49;70.29;101654.66;693767;28;21541;-67
2021/09/23 00:23:38;;;;;;;208.30;196.23;;;;;;;12.50;70.34;101657.19;696358;28;23746;-68
2021/09/23 00:24:00;;;;;;;226.90;213.75;;;;;;;12.49;70.29;101649.22;695658;28;45276;-68
2021/09/23 00:24:21;;;;;;;211.80;199.48;;;;;;;12.50;70.12;101656.34;696019;28;22395;-68
2021/09/23 00:24:42;;;;;;;188.90;177.90;;;;;;;12.51;70.29;101648.06;696947;28;22591;-68
2021/09/23 00:25:03;;;;;;;183.27;172.63;;;;;;;12.50;70.18;101651.78;697015;28;22235;-68
2021/09/23 00:25:25;;;;;;;191.85;180.65;;;;;;;12.51;70.25;101650.78;695483;28;46259;-68
2021/09/23 00:25:47;;;;;;;210.45;198.13;;;;;;;12.51;70.12;101647.22;695987;28;47490;-67
2021/09/23 00:26:08;;;;;;;205.23;193.32;;;;;;;12.51;70.15;101653.47;696504;28;22401;-68
2021/09/23 00:26:30;;;;;;;181.95;171.38;;;;;;;12.50;69.87;101645.50;696423;28;23453;-68
2021/09/23 00:26:51;;;;;;;216.35;203.80;;;;;;;12.48;70.33;101648.38;696165;28;44398;-68
2021/09/23 00:27:12;;;;;;;218.07;205.40;;;;;;;12.47;69.94;101646.69;696869;28;22383;-67
2021/09/23 00:27:33;;;;;;;209.88;197.65;;;;;;;12.44;70.37;101656.00;696608;28;23473;-67
2021/09/23 00:27:55;;;;;;;227.60;214.40;;;;;;;12.44;70.20;101649.72;696401;28;22196;-68
2021/09/23 00:28:17;;;;;;;217.80;205.25;;;;;;;12.41;70.52;101650.06;694654;28;69329;-67
2021/09/23 00:28:39;;;;;;;204.95;193.15;;;;;;;12.40;70.66;101654.66;695920;28;44447;-68
2021/09/23 00:29:02;;;;;;;219.10;206.65;;;;;;;12.41;70.37;101652.78;696772;28;21551;-68
2021/09/23 00:29:23;;;;;;;218.43;206.13;;;;;;;12.41;70.53;101653.63;693979;28;92281;-68
2021/09/23 00:29:44;;;;;;;234.00;220.75;;;;;;;12.39;70.32;101650.22;695611;28;45237;-67
2021/09/23 00:30:08;;;;;;;228.20;215.15;;;;;;;12.39;70.29;101649.38;696751;28;22392;-67
2021/09/23 00:30:30;;;;;;;241.02;227.20;;;;;;;12.36;70.67;101647.84;693400;28;93029;-68
2021/09/23 00:30:51;;;;;;;228.63;215.52;;;;;;;12.35;70.60;101656.16;696074;28;22410;-68
2021/09/23 00:31:12;;;;;;;237.80;224.15;;;;;;;12.32;70.84;101648.34;696714;28;22503;-68
2021/09/23 00:31:34;;;;;;;227.98;214.68;;;;;;;12.32;70.94;101653.78;695686;28;46675;-68
2021/09/23 00:31:55;;;;;;;208.93;196.73;;;;;;;12.30;71.00;101659.34;693962;28;22496;-68
2021/09/23 00:32:16;;;;;;;229.27;215.83;;;;;;;12.31;70.70;101650.22;692323;28;46345;-68
2021/09/23 00:32:38;;;;;;;237.95;223.98;;;;;;;12.32;70.70;101651.06;690085;28;46362;-68
2021/09/23 00:32:59;;;;;;;237.77;223.82;;;;;;;12.32;71.04;101659.19;690416;28;23424;-68
2021/09/23 00:33:21;;;;;;;256.80;241.75;;;;;;;12.27;71.07;101648.84;690846;28;22391;-68
2021/09/23 00:33:42;;;;;;;232.38;218.85;;;;;;;12.27;71.14;101648.84;692997;28;44388;-68
2021/09/23 00:34:03;;;;;;;232.25;218.70;;;;;;;12.28;70.85;101652.44;691414;28;21560;-68
2021/09/23 00:34:25;;;;;;;243.50;229.27;;;;;;;12.24;71.14;101651.88;691362;28;23313;-68
2021/09/23 00:34:46;;;;;;;229.30;215.93;;;;;;;12.24;71.16;101652.75;692363;28;69450;-68
2021/09/23 00:35:09;;;;;;;245.43;231.07;;;;;;;12.22;71.43;101652.06;696426;28;21303;-68
2021/09/23 00:35:31;;;;;;;249.20;234.57;;;;;;;12.21;71.10;101649.50;694967;28;44376;-67
2021/09/23 00:35:52;;;;;;;248.45;233.98;;;;;;;12.19;71.29;101649.66;696009;28;45231;-68
2021/09/23 00:36:14;;;;;;;262.65;247.35;;;;;;;12.20;71.31;101647.84;695772;28;24730;-68
2021/09/23 00:36:35;;;;;;;258.88;243.70;;;;;;;12.20;71.53;101645.97;695852;28;46267;-68
2021/09/23 00:36:56;;;;;;;284.35;267.70;;;;;;;12.20;71.38;101653.25;696544;28;21547;-66
2021/09/23 00:37:17;;;;;;;277.48;261.20;;;;;;;12.19;71.53;101656.97;696489;28;22393;-68
2021/09/23 00:37:39;;;;;;;256.10;241.10;;;;;;;12.18;71.38;101653.41;696320;28;21553;-68
2021/09/23 00:38:00;;;;;;;249.25;234.65;;;;;;;12.19;71.63;101655.09;695221;28;46319;-68
2021/09/23 00:38:22;;;;;;;225.82;212.63;;;;;;;12.19;71.52;101649.66;696260;28;23413;-68
2021/09/23 00:38:45;;;;;;;227.18;213.95;;;;;;;12.18;71.56;101658.00;696567;28;2397;-68
2021/09/23 00:39:06;;;;;;;240.60;226.60;;;;;;;12.17;71.52;101657.13;695098;28;46207;-68
2021/09/23 00:39:27;;;;;;;226.68;213.52;;;;;;;12.13;71.92;101647.66;696260;28;21520;-68
2021/09/23 00:39:48;;;;;;;239.00;225.18;;;;;;;12.14;71.86;101649.31;696942;28;23754;-67
2021/09/23 00:40:10;;;;;;;261.30;246.30;;;;;;;12.14;71.87;101652.03;695960;28;22393;-68
2021/09/23 00:40:32;;;;;;;278.75;262.95;;;;;;;12.14;71.95;101651.19;695064;28;45097;-67
2021/09/23 00:40:53;;;;;;;303.35;286.15;;;;;;;12.13;71.93;101644.94;695808;28;44378;-68
2021/09/23 00:41:14;;;;;;;275.00;259.35;;;;;;;12.12;71.89;101645.94;696319;28;23473;-67
2021/09/23 00:41:35;;;;;;;279.48;263.45;;;;;;;12.13;71.77;101638.66;696391;28;22414;-68
2021/09/23 00:41:57;;;;;;;280.38;264.17;;;;;;;12.14;71.98;101640.38;694445;28;21516;-68
2021/09/23 00:42:19;;;;;;;276.30;260.05;;;;;;;12.14;71.98;101645.78;695451;28;45315;-67
2021/09/23 00:42:41;;;;;;;292.63;275.38;;;;;;;12.14;71.92;101646.63;695924;28;45443;-68
2021/09/23 00:43:05;;;;;;;284.63;267.90;;;;;;;12.14;72.05;101641.22;694860;28;45238;-68
2021/09/23 00:43:26;;;;;;;308.00;289.83;;;;;;;12.13;71.89;101642.25;693363;28;90335;-68
2021/09/23 00:43:48;;;;;;;321.30;302.38;;;;;;;12.13;71.82;101644.94;695634;28;22211;-68
2021/09/23 00:44:13;;;;;;;325.65;306.45;;;;;;;12.12;71.86;101651.38;692877;28;46537;-68
2021/09/23 00:44:34;;;;;;;331.00;311.52;;;;;;;12.13;71.83;101642.25;690186;28;115843;-68
2021/09/23 00:44:56;;;;;;;391.20;367.73;;;;;;;12.13;71.75;101652.19;693291;28;22385;-68
2021/09/23 00:45:19;;;;;;;528.47;495.88;;;;;;;12.13;71.99;101644.06;692545;28;46404;-67
2021/09/23 00:45:41;;;;;;;445.67;418.55;;;;;;;12.12;72.05;101643.25;692480;28;69360;-67
2021/09/23 00:46:02;;;;;;;398.77;374.83;;;;;;;12.14;71.98;101643.91;694544;28;46331;-67
2021/09/23 00:46:24;;;;;;;320.60;301.70;;;;;;;12.14;72.06;101640.38;689494;28;1810;-68
2021/09/23 00:46:45;;;;;;;320.58;301.73;;;;;;;12.13;72.01;101639.53;688659;28;22412;-67
2021/09/23 00:47:09;;;;;;;360.95;339.58;;;;;;;12.13;71.72;101633.25;684992;28;90755;-68
2021/09/23 00:47:32;;;;;;;315.63;296.95;;;;;;;12.12;71.84;101637.81;687055;28;69165;-68
2021/09/23 00:47:55;;;;;;;287.35;270.40;;;;;;;12.10;71.88;101630.88;685905;28;69420;-67
2021/09/23 00:48:18;;;;;;;257.15;242.10;;;;;;;12.12;71.70;101639.69;689827;28;44397;-68
2021/09/23 00:48:39;;;;;;;252.60;237.82;;;;;;;12.10;72.01;101637.16;691875;28;69451;-68
2021/09/23 00:49:00;;;;;;;272.30;256.42;;;;;;;12.11;71.95;101638.00;693057;28;46339;-68
2021/09/23 00:49:21;;;;;;;272.25;256.35;;;;;;;12.11;72.09;101630.69;690774;28;21521;-67
2021/09/23 00:49:44;;;;;;;300.67;283.13;;;;;;;12.10;71.80;101639.84;689008;28;22319;-68
2021/09/23 00:50:09;;;;;;;292.67;275.60;;;;;;;12.09;72.07;101632.75;687563;28;56518;-67
2021/09/23 00:50:32;;;;;;;307.77;289.80;;;;;;;12.09;71.91;101635.44;682604;28;137920;-67
2021/09/23 00:51:01;;;;;;;316.75;298.20;;;;;;;12.09;71.90;101635.44;684219;28;136300;-67
2021/09/23 00:51:22;;;;;;;323.27;304.23;;;;;;;12.07;71.95;101632.91;685220;28;46384;-68
2021/09/23 00:51:44;;;;;;;355.50;334.50;;;;;;;12.08;72.14;101637.31;686470;28;21514;-68
2021/09/23 00:52:05;;;;;;;339.88;319.92;;;;;;;12.09;72.04;101632.75;685595;28;44366;-67
2021/09/23 00:52:27;;;;;;;320.70;301.83;;;;;;;12.09;72.26;101638.16;686775;28;46318;-67
2021/09/23 00:52:49;;;;;;;358.02;336.80;;;;;;;12.12;71.86;101632.41;686175;28;22351;-67
2021/09/23 00:53:14;;;;;;;373.75;351.38;;;;;;;12.12;72.23;101626.16;684701;28;114893;-68
2021/09/23 00:53:38;;;;;;;323.88;304.77;;;;;;;12.13;72.16;101630.53;686066;28;92285;-68
2021/09/23 00:54:01;;;;;;;306.63;288.55;;;;;;;12.13;72.00;101634.13;688495;28;45134;-67
2021/09/23 00:54:22;;;;;;;226.40;213.13;;;;;;;12.13;71.95;101627.81;689324;28;70221;-67
2021/09/23 00:54:43;;;;;;;217.68;204.98;;;;;;;12.12;72.00;101626.16;686824;28;20862;-68
2021/09/23 00:55:06;;;;;;;195.20;183.85;;;;;;;12.12;72.11;101628.88;687138;28;44441;-67
2021/09/23 00:55:29;;;;;;;163.57;154.18;;;;;;;12.10;71.79;101634.44;687696;28;66942;-68
2021/09/23 00:55:50;;;;;;;190.00;178.93;;;;;;;12.11;72.07;101628.00;689280;28;46426;-68
2021/09/23 00:56:15;;;;;;;174.88;164.77;;;;;;;12.11;72.22;101632.56;686048;28;113369;-67
2021/09/23 00:56:36;;;;;;;172.35;162.30;;;;;;;12.10;72.12;101626.31;690938;28;21295;-67
2021/09/23 00:56:58;;;;;;;154.10;145.35;;;;;;;12.10;71.92;101623.63;689491;28;46333;-68
2021/09/23 00:57:21;;;;;;;152.73;144.13;;;;;;;12.10;71.87;101625.44;687911;28;22417;-68
2021/09/23 00:57:42;;;;;;;151.40;142.85;;;;;;;12.12;72.12;101621.56;686004;28;69708;-67
2021/09/23 00:58:04;;;;;;;146.75;138.50;;;;;;;12.10;71.95;101617.31;687770;28;44395;-67
2021/09/23 00:58:31;;;;;;;146.77;138.57;;;;;;;12.11;71.90;101617.16;685884;28;138471;-67
2021/09/23 00:58:52;;;;;;;124.63;117.93;;;;;;;12.11;71.92;101624.44;687753;28;45237;-68
2021/09/23 00:59:14;;;;;;;118.82;112.43;;;;;;;12.12;72.10;101623.44;685959;28;46401;-68
2021/09/23 00:59:38;;;;;;;108.13;102.38;;;;;;;12.08;72.07;101617.50;684813;28;92597;-67
2021/09/23 01:00:00;;;;;;;83.53;79.22;;;;;;;12.11;72.01;101624.44;685773;28;46647;-68
2021/09/23 01:00:26;;;;;;;101.03;95.78;;;;;;;12.11;71.93;101619.03;683820;28;115821;-68
2021/09/23 01:01:02;;;;;;;72.13;68.47;;;;;;;12.08;71.81;101612.94;687094;28;107366;-68
2021/09/23 01:01:23;;;;;;;72.60;68.90;;;;;;;12.11;71.84;101621.75;688498;28;22276;-68
2021/09/23 01:01:46;;;;;;;79.35;75.25;;;;;;;12.08;71.86;101620.19;689828;28;21086;-67
2021/09/23 01:02:08;;;;;;;62.45;59.30;;;;;;;12.09;72.14;101616.50;682195;28;92414;-67
2021/09/23 01:02:29;;;;;;;56.33;53.53;;;;;;;12.10;72.14;101617.31;682959;28;21184;-68
2021/09/23 01:02:52;;;;;;;51.75;49.25;;;;;;;12.10;72.14;101617.31;684047;28;70559;-68
2021/09/23 01:03:15;;;;;;;31.25;29.90;;;;;;;12.08;72.09;101618.38;685234;28;22402;-68
2021/09/23 01:03:37;;;;;;;18.80;18.00;;;;;;;12.11;72.08;101614.47;682317;28;92282;-68
2021/09/23 01:03:59;;;;;;;16.98;16.35;;;;;;;12.10;71.89;101622.75;683884;28;22476;-67
2021/09/23 01:04:20;;;;;;;8.55;8.25;;;;;;;12.10;72.04;101615.50;687924;28;24159;-68
2021/09/23 01:04:43;;;;;;;6.53;6.32;;;;;;;12.12;72.08;101618.03;688617;28;23439;-68
2021/09/23 01:05:09;;;;;;;5.30;5.13;;;;;;;12.10;72.05;101620.03;685937;28;112977;-67
2021/09/23 01:05:31;;;;;;;8.27;7.97;;;;;;;12.08;72.12;101615.66;683363;28;113630;-68
2021/09/23 01:05:53;;;;;;;4.35;4.25;;;;;;;12.07;71.93;101618.53;687736;28;46281;-67
2021/09/23 01:06:15;;;;;;;4.93;4.82;;;;;;;12.07;71.99;101618.53;688030;28;46366;-67
2021/09/23 01:06:36;;;;;;;5.35;5.18;;;;;;;12.07;71.99;101621.22;689992;28;46301;-67
2021/09/23 01:06:57;;;;;;;4.10;3.97;;;;;;;12.07;71.92;101616.66;692246;28;23508;-67
2021/09/23 01:07:20;;;;;;;16.42;15.75;;;;;;;12.07;71.93;101619.38;693897;28;21538;-68
2021/09/23 01:07:45;;;;;;;22.88;21.88;;;;;;;12.06;71.97;101624.94;691616;28;69475;-68
2021/09/23 01:08:12;;;;;;;8.38;8.07;;;;;;;12.07;71.87;101623.94;688551;28;160329;-67
2021/09/23 01:08:34;;;;;;;9.52;9.23;;;;;;;12.07;71.79;101621.22;688186;28;69436;-68
2021/09/23 01:08:57;;;;;;;11.38;10.98;;;;;;;12.03;71.77;101615.28;688772;28;46741;-67
2021/09/23 01:09:18;;;;;;;7.65;7.43;;;;;;;12.04;71.89;101619.69;688732;28;45251;-68
2021/09/23 01:09:40;;;;;;;13.10;12.63;;;;;;;12.04;71.99;101622.41;688190;28;22455;-67
2021/09/23 01:10:03;;;;;;;20.52;19.73;;;;;;;12.03;72.14;101623.41;684941;28;45217;-68
2021/09/23 01:10:24;;;;;;;24.98;23.90;;;;;;;12.03;72.01;101626.13;686592;28;69871;-68
2021/09/23 01:10:47;;;;;;;46.90;44.63;;;;;;;12.02;72.01;101626.28;688775;28;44287;-68
2021/09/23 01:11:08;;;;;;;32.28;30.83;;;;;;;11.99;72.00;101619.34;683562;28;67521;-67
2021/09/23 01:11:31;;;;;;;49.83;47.42;;;;;;;11.97;72.28;101624.06;685196;28;69238;-67
2021/09/23 01:11:52;;;;;;;54.47;51.78;;;;;;;11.98;72.18;101623.06;688916;28;21522;-68
2021/09/23 01:12:15;;;;;;;47.35;45.08;;;;;;;11.99;72.45;101621.19;687935;28;22413;-68
2021/09/23 01:12:37;;;;;;;44.63;42.53;;;;;;;11.94;72.29;101618.97;687912;28;46542;-68
2021/09/23 01:12:58;;;;;;;45.75;43.60;;;;;;;11.95;72.47;101620.69;689782;28;45278;-68
2021/09/23 01:13:24;;;;;;;43.00;40.97;;;;;;;11.93;72.44;101617.31;687897;28;106360;-68
2021/09/23 01:14:00;;;;;;;66.65;63.25;;;;;;;11.94;72.59;101620.84;689805;28;137700;-68
2021/09/23 01:14:32;;;;;;;49.13;46.75;;;;;;;11.92;72.32;101621.00;685358;28;137988;-68
2021/09/23 01:14:54;;;;;;;48.70;46.35;;;;;;;11.94;72.54;101621.69;686667;28;22439;-68
2021/09/23 01:15:17;;;;;;;60.58;57.53;;;;;;;11.93;72.67;101611.88;686399;28;45281;-67
2021/09/23 01:15:40;;;;;;;46.10;43.90;;;;;;;11.94;72.73;101618.13;684024;28;113548;-67
2021/09/23 01:16:01;;;;;;;29.35;28.02;;;;;;;11.93;72.66;101611.88;686665;28;21328;-67
2021/09/23 01:16:52;;;;;;;27.92;26.73;;;;;;;11.96;72.43;101616.09;685776;28;137650;-67
2021/09/23 01:17:24;;;;;;;25.67;24.55;;;;;;;11.97;72.66;101615.94;687175;28;137710;-67
2021/09/23 01:17:52;;;;;;;27.13;25.90;;;;;;;11.97;72.59;101609.69;688143;28;136149;-68
2021/09/23 01:18:16;;;;;;;27.65;26.40;;;;;;;11.99;72.33;101611.22;692072;28;69318;-68
2021/09/23 01:18:37;;;;;;;22.77;21.77;;;;;;;11.98;72.25;101608.69;690268;28;46415;-68
2021/09/23 01:18:59;;;;;;;16.98;16.30;;;;;;;11.97;72.41;101605.09;690552;28;21547;-68
2021/09/23 01:19:24;;;;;;;3.75;3.65;;;;;;;11.97;72.31;101607.81;684637;28;137814;-67
2021/09/23 01:19:47;;;;;;;5.80;5.60;;;;;;;11.98;72.45;101606.81;683059;28;69889;-68
2021/09/23 01:20:11;;;;;;;4.38;4.18;;;;;;;11.95;72.28;101600.91;683436;28;46157;-68
2021/09/23 01:20:32;;;;;;;4.82;4.63;;;;;;;11.95;72.19;101606.31;685581;28;90569;-68
2021/09/23 01:20:55;;;;;;;7.20;6.93;;;;;;;12.00;72.26;101606.66;687354;28;45411;-68
2021/09/23 01:21:17;;;;;;;3.55;3.45;;;;;;;11.99;72.17;101611.22;691018;28;23577;-67
2021/09/23 01:21:39;;;;;;;1.92;1.92;;;;;;;11.97;72.28;101607.81;692352;28;69435;-68
2021/09/23 01:22:02;;;;;;;1.83;1.83;;;;;;;11.98;72.32;101608.69;688983;28;90788;-68
2021/09/23 01:22:45;;;;;;;6.43;6.22;;;;;;;11.97;72.25;101609.69;689667;28;137498;-68
2021/09/23 01:23:11;;;;;;;1.77;1.77;;;;;;;11.95;72.26;101604.44;687167;28;138164;-68
2021/09/23 01:23:38;;;;;;;3.08;2.97;;;;;;;11.89;72.31;101597.78;686339;28;137974;-68
2021/09/23 01:24:00;;;;;;;3.97;3.78;;;;;;;11.94;72.20;101607.31;689230;28;45242;-68
2021/09/23 01:24:22;;;;;;;2.92;2.83;;;;;;;11.94;72.31;101605.44;689295;28;44402;-67
2021/09/23 01:24:43;;;;;;;18.52;17.70;;;;;;;11.93;72.49;101605.59;685984;28;45296;-68
2021/09/23 01:25:07;;;;;;;46.05;43.88;;;;;;;11.91;72.46;101597.63;687778;28;22394;-67
2021/09/23 01:25:37;;;;;;;52.53;49.92;;;;;;;11.92;72.47;101599.34;686182;28;137816;-68
2021/09/23 01:25:59;;;;;;;62.20;59.05;;;;;;;11.90;72.39;101601.34;688800;28;69418;-68
2021/09/23 01:26:26;;;;;;;96.75;91.65;;;;;;;11.89;72.57;101603.19;691117;28;22406;-67
2021/09/23 01:26:48;;;;;;;109.97;104.13;;;;;;;11.90;72.78;101604.91;686280;28;159087;-68
2021/09/23 01:27:48;;;;;;;117.47;110.88;;;;;;;11.91;72.78;101592.19;684250;28;4490;-66
2021/09/23 01:28:18;;;;;;;119.50;113.00;;;;;;;11.92;72.50;101598.47;680125;28;138362;-66
2021/09/23 01:28:46;;;;;;;90.57;85.78;;;;;;;11.90;72.55;101598.66;680074;28;136209;-65
2021/09/23 01:29:09;;;;;;;86.43;81.90;;;;;;;11.93;72.70;101592.06;681022;28;46439;-66
2021/09/23 01:29:37;;;;;;;89.85;85.10;;;;;;;11.93;72.54;101592.06;675573;29;137802;-66
2021/09/23 01:30:06;;;;;;;57.03;54.22;;;;;;;11.95;72.50;101598.19;680645;28;137539;-66
2021/09/23 01:30:31;;;;;;;69.45;65.85;;;;;;;11.95;72.76;101587.34;682008;28;114901;-66
2021/09/23 01:30:52;;;;;;;66.53;63.13;;;;;;;11.94;72.46;101591.91;683426;28;45227;-66
2021/09/23 01:31:13;;;;;;;72.10;68.43;;;;;;;11.94;72.84;101585.66;684080;28;23359;-66
2021/09/23 01:31:41;;;;;;;61.60;58.53;;;;;;;11.97;72.54;101585.31;680531;28;138039;-65
2021/09/23 01:32:05;;;;;;;51.90;49.40;;;;;;;11.95;72.66;101588.19;679995;28;23454;-66
2021/09/23 01:32:27;;;;;;;58.85;55.90;;;;;;;11.95;72.62;101590.91;679543;28;115098;-66
2021/09/23 01:32:48;;;;;;;53.15;50.55;;;;;;;11.94;72.80;101589.19;682328;28;22394;-66
2021/09/23 01:33:13;;;;;;;35.15;33.60;;;;;;;11.95;72.80;101588.19;680355;28;92053;-66
2021/09/23 01:33:35;;;;;;;36.38;34.75;;;;;;;11.96;72.66;101583.63;680616;29;46234;-66
2021/09/23 01:33:56;;;;;;;57.92;55.08;;;;;;;11.96;72.77;101586.31;681559;28;69519;-66
2021/09/23 01:34:18;;;;;;;97.03;91.95;;;;;;;11.95;72.61;101582.78;681800;28;45158;-66
2021/09/23 01:34:39;;;;;;;94.72;89.78;;;;;;;11.95;72.78;101588.19;683878;28;22413;-66
2021/09/23 01:35:02;;;;;;;85.70;81.25;;;;;;;11.94;72.62;101586.50;686417;28;23493;-66
2021/09/23 01:35:24;;;;;;;66.70;63.35;;;;;;;11.96;72.70;101578.19;685780;28;69367;-66
2021/09/23 01:35:45;;;;;;;36.85;35.17;;;;;;;11.94;72.79;101583.78;686042;28;46447;-66
2021/09/23 01:36:06;;;;;;;47.38;45.05;;;;;;;11.94;72.80;101577.53;686625;28;22244;-66
2021/09/23 01:36:29;;;;;;;48.00;45.65;;;;;;;11.95;72.61;101574.66;684026;28;22019;-66
2021/09/23 01:36:51;;;;;;;60.83;57.75;;;;;;;11.92;72.57;101580.41;679955;28;69483;-66
2021/09/23 01:37:12;;;;;;;73.63;69.82;;;;;;;11.93;72.51;101581.25;678024;29;43979;-66
2021/09/23 01:37:42;;;;;;;67.50;64.03;;;;;;;11.93;72.62;101578.53;674488;29;137619;-66
2021/09/23 01:38:03;;;;;;;24.15;22.90;;;;;;;11.92;72.64;101577.69;680032;29;44387;-66
2021/09/23 01:38:25;;;;;;;2.33;2.22;;;;;;;11.92;72.56;101575.00;679175;28;46343;-66
2021/09/23 01:38:49;;;;;;;2.25;2.15;;;;;;;11.94;72.75;101572.13;681886;28;22410;-66
2021/09/23 01:39:16;;;;;;;5.93;5.70;;;;;;;11.93;72.63;101571.28;682570;28;92330;-66
2021/09/23 01:39:38;;;;;;;13.00;12.50;;;;;;;11.93;72.80;101573.13;680493;28;137819;-66
2021/09/23 01:40:11;;;;;;;5.53;5.35;;;;;;;11.93;72.54;101567.69;681682;28;136005;-67
2021/09/23 01:40:36;;;;;;;3.60;3.50;;;;;;;11.94;72.83;101558.59;684414;28;44385;-66
2021/09/23 01:40:59;;;;;;;3.75;3.65;;;;;;;11.95;72.58;101565.69;679329;28;137733;-65
2021/09/23 01:41:20;;;;;;;3.92;3.78;;;;;;;11.94;72.53;101570.25;680458;28;21512;-66
2021/09/23 01:41:43;;;;;;;7.22;6.93;;;;;;;11.95;72.62;101563.81;678566;29;69476;-66
2021/09/23 01:42:06;;;;;;;4.35;4.25;;;;;;;11.93;72.75;101557.75;677892;29;22379;-66
2021/09/23 01:42:28;;;;;;;2.70;2.60;;;;;;;11.93;72.74;101557.75;678178;29;67383;-66
2021/09/23 01:42:49;;;;;;;2.47;2.38;;;;;;;11.93;72.92;101559.59;679946;29;21510;-66
2021/09/23 01:43:10;;;;;;;3.17;3.08;;;;;;;11.92;72.51;101557.88;679898;29;23478;-67
2021/09/23 01:43:32;;;;;;;2.35;2.25;;;;;;;11.91;72.73;101557.00;681294;28;22486;-66
2021/09/23 01:43:53;;;;;;;3.03;2.92;;;;;;;11.91;72.81;101559.72;681974;28;69261;-65
2021/09/23 01:44:15;;;;;;;2.95;2.85;;;;;;;11.90;72.75;101558.88;682087;28;22395;-66
2021/09/23 01:44:36;;;;;;;1.67;1.67;;;;;;;11.90;72.99;101552.63;678383;29;22511;-67
2021/09/23 01:45:01;;;;;;;2.25;2.15;;;;;;;11.90;72.90;101553.47;678223;29;67517;-66